Flugplatz Varrelbusch

Für EDWU sind keine METAR/TAF Berichte vorhanden.
Es werden die Flugwettermeldungen vom Flugplatz Diepholz Airport in 41 km Entfernung angezeigt.

Bericht für ETND

vom 01.12. um 09:00 UTC

Wind 19 kt aus 210°

Sichtweite 10 km oder mehr

schwacher Regen

schwacher Sprühregen

gering bewölkt in 1000 ft

aufgebrochene Bewölkung in 1300 ft

Temperatur 8.0°C

Taupunkt 7.0°C

Luftfeuchtigkeit 93%

Luftdruck 988 hPa

ETND 010900Z 21019KT 9999 -RADZ FEW010 BKN013 08/07 Q0988 GRN FCST CANCEL

Prognose für ETND

vom 01.12. um 05:55 UTC

Zwischen 06:00 UTC und 15:00 UTC

Wind 15 kt aus 210° in Böen 30 kt

Sichtweite 10 km oder mehr

keine signifikanten Wettererscheinungen

aufgebrochene Bewölkung in 1200 ft


Zwischen 06:00 UTC und 10:00 UTC zeitweise

Wind 20 kt aus 230° in Böen 35 kt

Sichtweite 4000 m

schwacher Regen

schwacher Sprühregen

aufgebrochene Bewölkung in 500 ft


Zwischen 11:00 UTC und 15:00 UTC zeitweise

Wind 20 kt aus 230° in Böen 35 kt

Sichtweite 10 km oder mehr

keine signifikanten Wettererscheinungen

aufgebrochene Bewölkung in 2000 ft

TAF ETND 010555Z 0106/0115 21015G30KT 9999 NSW BKN012 TEMPO 0106/0110 23020G35KT 4000 -RADZ BKN005 TEMPO 0111/0115 23020G35KT 9999 NSW BKN020 BY ETGL
Impressum